createdAt,value
2019-05-28T00:00:47.522Z,16
2019-05-28T00:01:57.474Z,15.83
2019-05-28T00:03:07.837Z,15.88
2019-05-28T00:04:17.812Z,15.94
2019-05-28T00:05:27.542Z,15.84
2019-05-28T00:06:37.232Z,15.85
2019-05-28T00:07:46.928Z,15.88
2019-05-28T00:08:56.625Z,15.84
2019-05-28T00:10:07.581Z,15.88
2019-05-28T00:11:17.792Z,15.85
2019-05-28T00:12:27.511Z,15.85
2019-05-28T00:13:37.234Z,15.83
2019-05-28T00:14:46.939Z,15.85
2019-05-28T00:15:56.685Z,15.84
2019-05-28T00:17:06.401Z,15.81
2019-05-28T00:18:16.104Z,15.8
2019-05-28T00:19:25.546Z,15.78
2019-05-28T00:20:35.052Z,15.92
2019-05-28T00:21:45.004Z,15.76
2019-05-28T00:22:54.718Z,15.81
2019-05-28T00:24:04.708Z,15.8
2019-05-28T00:25:14.802Z,15.78
2019-05-28T00:26:24.493Z,15.76
2019-05-28T00:27:34.210Z,15.78
2019-05-28T00:28:44.210Z,15.81
2019-05-28T00:29:54.165Z,15.76
2019-05-28T00:31:04.126Z,15.76
2019-05-28T00:32:14.072Z,15.76
2019-05-28T00:33:24.084Z,15.73
2019-05-28T00:34:33.541Z,15.76
2019-05-28T00:35:43.545Z,15.65
2019-05-28T00:36:53.254Z,15.66
2019-05-28T00:38:02.958Z,15.59
2019-05-28T00:39:12.724Z,15.66
2019-05-28T00:40:22.835Z,15.57
2019-05-28T00:41:32.278Z,15.65
2019-05-28T00:42:42.244Z,15.62
2019-05-28T00:43:52.195Z,15.54
2019-05-28T00:45:01.894Z,15.48
2019-05-28T00:46:11.594Z,15.52
2019-05-28T00:47:21.298Z,15.55
2019-05-28T00:48:31.266Z,15.41
2019-05-28T00:49:40.732Z,15.48
2019-05-28T00:50:54.533Z,15.44
2019-05-28T00:52:03.990Z,15.43
2019-05-28T00:53:13.691Z,15.33
2019-05-28T00:54:23.658Z,15.44
2019-05-28T00:55:33.633Z,15.41
2019-05-28T00:56:43.462Z,15.37
2019-05-28T00:57:53.490Z,15.27
2019-05-28T00:59:02.938Z,15.35
2019-05-28T01:00:12.655Z,15.39
2019-05-28T01:01:22.634Z,15.29
2019-05-28T01:02:32.340Z,15.26
2019-05-28T01:03:42.322Z,15.32
2019-05-28T01:04:52.479Z,15.27
2019-05-28T01:06:02.479Z,15.3
2019-05-28T01:07:12.445Z,15.25
2019-05-28T01:08:22.408Z,15.27
2019-05-28T01:09:32.106Z,15.23
2019-05-28T01:10:41.803Z,15.14
2019-05-28T01:11:51.522Z,15.15
2019-05-28T01:13:01.492Z,15.18
2019-05-28T01:14:11.192Z,15.14
2019-05-28T01:15:20.919Z,15.12
2019-05-28T01:16:30.625Z,15.11
2019-05-28T01:17:40.557Z,15.11
2019-05-28T01:18:50.512Z,15.04
2019-05-28T01:20:00.472Z,15.05
2019-05-28T01:21:10.180Z,15.08
2019-05-28T01:22:19.948Z,14.97
2019-05-28T01:23:29.151Z,15.02
2019-05-28T01:24:38.602Z,15.02
2019-05-28T01:25:48.073Z,14.87
2019-05-28T01:26:57.767Z,14.97
2019-05-28T01:28:07.762Z,14.82
2019-05-28T01:29:17.247Z,14.87
2019-05-28T01:30:27.194Z,14.87
2019-05-28T01:31:37.165Z,14.9
2019-05-28T01:32:46.915Z,14.85
2019-05-28T01:33:56.906Z,14.79
2019-05-28T01:35:06.877Z,14.79
2019-05-28T01:36:16.840Z,14.81
2019-05-28T01:37:26.798Z,14.77
2019-05-28T01:38:36.768Z,14.71
2019-05-28T01:39:46.789Z,14.66
2019-05-28T01:40:56.737Z,14.66
2019-05-28T01:42:06.763Z,14.63
2019-05-28T01:43:16.465Z,14.61
2019-05-28T01:44:26.160Z,14.62
2019-05-28T01:45:36.181Z,14.55
2019-05-28T01:46:45.629Z,14.49
2019-05-28T01:47:57.620Z,14.55
2019-05-28T01:49:07.737Z,14.55
2019-05-28T01:50:17.469Z,14.45
2019-05-28T01:51:26.935Z,14.43
2019-05-28T01:52:36.902Z,14.48
2019-05-28T01:53:46.852Z,14.36
2019-05-28T01:54:56.800Z,14.38
2019-05-28T01:56:06.715Z,14.36
2019-05-28T01:57:16.398Z,14.34
2019-05-28T01:58:26.386Z,14.34
2019-05-28T01:59:36.344Z,14.31
2019-05-28T02:00:46.324Z,14.31
2019-05-28T02:01:56.302Z,14.31
2019-05-28T02:03:05.752Z,14.28
2019-05-28T02:04:15.706Z,14.23
2019-05-28T02:05:25.655Z,14.3
2019-05-28T02:06:35.430Z,14.33
2019-05-28T02:07:45.384Z,14.31
2019-05-28T02:08:55.127Z,14.28
2019-05-28T02:10:04.836Z,14.31
2019-05-28T02:11:14.787Z,14.25
2019-05-28T02:12:24.748Z,14.34
2019-05-28T02:13:34.457Z,14.22
2019-05-28T02:14:44.428Z,14.28
2019-05-28T02:15:54.129Z,14.33
2019-05-28T02:17:04.083Z,14.26
2019-05-28T02:18:13.797Z,14.2
2019-05-28T02:19:23.243Z,14.23
2019-05-28T02:20:33.018Z,14.22
2019-05-28T02:21:42.971Z,14.25
2019-05-28T02:22:52.951Z,14.26
2019-05-28T02:24:02.910Z,14.26
2019-05-28T02:25:12.675Z,14.23
2019-05-28T02:26:22.633Z,14.23
2019-05-28T02:27:32.089Z,14.23
2019-05-28T02:28:41.537Z,14.19
2019-05-28T02:29:51.247Z,14.19
2019-05-28T02:31:01.216Z,14.19
2019-05-28T02:32:10.930Z,14.23
2019-05-28T02:33:20.873Z,14.19
2019-05-28T02:34:30.851Z,14.18
2019-05-28T02:35:40.818Z,14.13
2019-05-28T02:36:50.801Z,14.11
2019-05-28T02:38:00.533Z,14.11
2019-05-28T02:39:10.245Z,14.08
2019-05-28T02:40:19.737Z,14.08
2019-05-28T02:41:29.686Z,14.05
2019-05-28T02:42:39.379Z,14.05
2019-05-28T02:43:49.322Z,14.08
2019-05-28T02:44:59.274Z,14
2019-05-28T02:46:09.242Z,14.03
2019-05-28T02:47:19.222Z,13.95
2019-05-28T02:48:29.206Z,13.95
2019-05-28T02:49:39.152Z,14
2019-05-28T02:50:48.355Z,13.98
2019-05-28T02:51:58.057Z,13.97
2019-05-28T02:53:08.021Z,14
2019-05-28T02:54:17.969Z,13.95
2019-05-28T02:55:27.673Z,13.97
2019-05-28T02:56:37.389Z,13.94
2019-05-28T02:57:47.357Z,14.01
2019-05-28T02:58:57.314Z,14
2019-05-28T03:00:07.370Z,13.98
2019-05-28T03:01:17.078Z,14
2019-05-28T03:02:27.266Z,14
2019-05-28T03:03:36.963Z,13.93
2019-05-28T03:04:46.941Z,13.86
2019-05-28T03:05:56.903Z,13.89
2019-05-28T03:07:06.612Z,13.95
2019-05-28T03:08:16.607Z,13.94
2019-05-28T03:09:26.335Z,13.93
2019-05-28T03:11:06.581Z,13.93
2019-05-28T03:12:16.282Z,13.94
2019-05-28T03:13:26.233Z,13.95
2019-05-28T03:14:36.180Z,14.05
2019-05-28T03:15:46.141Z,13.97
2019-05-28T03:16:56.134Z,14.01
2019-05-28T03:18:05.867Z,13.95
2019-05-28T03:19:15.409Z,13.97
2019-05-28T03:20:25.398Z,13.97
2019-05-28T03:21:35.347Z,14.01
2019-05-28T03:22:45.316Z,13.94
2019-05-28T03:23:55.281Z,13.98
2019-05-28T03:25:04.989Z,14.03
2019-05-28T03:26:15.000Z,13.93
2019-05-28T03:27:24.695Z,14
2019-05-28T03:28:34.649Z,14.04
2019-05-28T03:29:44.593Z,13.91
2019-05-28T03:30:54.328Z,13.98
2019-05-28T03:32:14.180Z,13.98
2019-05-28T03:33:23.933Z,14.03
2019-05-28T03:34:33.905Z,13.97
2019-05-28T03:35:46.774Z,13.98
2019-05-28T03:36:55.977Z,14.03
2019-05-28T03:38:05.933Z,14.04
2019-05-28T03:39:15.904Z,13.97
2019-05-28T03:40:25.872Z,13.98
2019-05-28T03:41:35.592Z,13.97
2019-05-28T03:42:45.587Z,14.03
2019-05-28T03:43:55.538Z,13.98
2019-05-28T03:45:05.309Z,14
2019-05-28T03:46:15.284Z,13.94
2019-05-28T03:47:25.230Z,14.05
2019-05-28T03:48:34.926Z,14.03
2019-05-28T03:49:44.624Z,14.03
2019-05-28T03:50:54.322Z,14.04
2019-05-28T03:52:04.619Z,14.05
2019-05-28T03:53:14.575Z,14.08
2019-05-28T03:54:24.295Z,14.08
2019-05-28T03:55:34.266Z,14.08
2019-05-28T03:56:44.209Z,14.13
2019-05-28T03:57:53.910Z,14.15
2019-05-28T03:59:03.610Z,14.11
2019-05-28T04:00:13.567Z,14.2
2019-05-28T04:01:23.360Z,14.18
2019-05-28T04:02:33.307Z,14.2
2019-05-28T04:03:43.249Z,14.18
2019-05-28T04:04:52.941Z,14.19
2019-05-28T04:06:02.964Z,14.3
2019-05-28T04:07:12.671Z,14.28
2019-05-28T04:08:22.617Z,14.2
2019-05-28T04:09:36.274Z,14.25
2019-05-28T04:10:46.253Z,14.25
2019-05-28T04:11:56.227Z,14.31
2019-05-28T04:13:05.941Z,14.3
2019-05-28T04:14:16.406Z,14.31
2019-05-28T04:15:26.165Z,14.33
2019-05-28T04:16:36.114Z,14.33
2019-05-28T04:17:46.068Z,14.51
2019-05-28T04:18:55.762Z,14.48
2019-05-28T04:20:05.817Z,14.45
2019-05-28T04:21:15.836Z,14.45
2019-05-28T04:22:25.546Z,14.55
2019-05-28T04:23:35.530Z,14.58
2019-05-28T04:24:49.195Z,14.52
2019-05-28T04:25:58.961Z,14.53
2019-05-28T04:27:08.977Z,14.52
2019-05-28T04:28:18.931Z,14.56
2019-05-28T04:29:28.642Z,14.53
2019-05-28T04:30:38.590Z,14.61
2019-05-28T04:31:48.310Z,14.62
2019-05-28T04:32:58.014Z,14.56
2019-05-28T04:34:07.723Z,14.62
2019-05-28T04:35:17.534Z,14.59
2019-05-28T04:36:27.482Z,14.66
2019-05-28T04:37:37.446Z,14.63
2019-05-28T04:38:47.435Z,14.71
2019-05-28T04:39:57.167Z,14.73
2019-05-28T04:41:06.782Z,14.74
2019-05-28T04:42:16.231Z,14.77
2019-05-28T04:43:26.299Z,14.78
2019-05-28T04:44:36.272Z,14.79
2019-05-28T04:45:45.985Z,14.81
2019-05-28T04:46:55.792Z,14.74
2019-05-28T04:48:05.787Z,14.9
2019-05-28T04:49:15.763Z,14.77
2019-05-28T04:50:25.734Z,14.86
2019-05-28T04:51:35.685Z,14.86
2019-05-28T04:52:45.652Z,14.93
2019-05-28T04:53:55.362Z,14.86
2019-05-28T04:55:05.323Z,14.97
2019-05-28T04:56:15.083Z,14.94
2019-05-28T04:57:24.795Z,15
2019-05-28T04:58:34.746Z,14.97
2019-05-28T04:59:44.701Z,15
2019-05-28T05:00:54.678Z,15
2019-05-28T05:02:04.498Z,15.02
2019-05-28T05:03:14.452Z,14.97
2019-05-28T05:04:24.432Z,15.02
2019-05-28T05:05:34.153Z,14.96
2019-05-28T05:06:44.107Z,15.07
2019-05-28T05:07:53.819Z,15.07
2019-05-28T05:09:03.787Z,15.04
2019-05-28T05:10:13.735Z,15.04
2019-05-28T05:11:26.814Z,15.12
2019-05-28T05:12:36.817Z,15.12
2019-05-28T05:13:46.798Z,15.05
2019-05-28T05:14:56.835Z,15.12
2019-05-28T05:16:06.672Z,15.14
2019-05-28T05:17:16.417Z,15.18
2019-05-28T05:18:26.393Z,15.18
2019-05-28T05:19:36.361Z,15.23
2019-05-28T05:20:46.306Z,15.26
2019-05-28T05:21:56.027Z,15.26
2019-05-28T05:23:05.754Z,15.41
2019-05-28T05:24:15.732Z,15.41
2019-05-28T05:25:25.707Z,15.47
2019-05-28T05:26:35.500Z,15.48
2019-05-28T05:27:44.968Z,15.5
2019-05-28T05:28:54.934Z,15.5
2019-05-28T05:30:04.699Z,15.59
2019-05-28T05:31:14.707Z,15.6
2019-05-28T05:32:27.713Z,15.69
2019-05-28T05:33:37.500Z,15.7
2019-05-28T05:34:47.456Z,15.73
2019-05-28T05:35:57.404Z,15.76
2019-05-28T05:37:07.097Z,15.75
2019-05-28T05:38:16.576Z,15.88
2019-05-28T05:39:26.547Z,15.81
2019-05-28T05:40:36.274Z,15.88
2019-05-28T05:41:45.993Z,15.9
2019-05-28T05:42:55.704Z,15.99
2019-05-28T05:44:05.408Z,15.98
2019-05-28T05:45:15.376Z,16.02
2019-05-28T05:46:25.350Z,15.85
2019-05-28T05:47:34.811Z,15.99
2019-05-28T05:48:44.521Z,15.92
2019-05-28T05:49:54.474Z,16
2019-05-28T05:51:04.489Z,16
2019-05-28T05:52:13.949Z,16.05
2019-05-28T05:53:23.696Z,16.02
2019-05-28T05:54:33.682Z,16.03
2019-05-28T05:55:43.630Z,16.02
2019-05-28T05:56:53.590Z,16
2019-05-28T05:58:03.586Z,16.1
2019-05-28T05:59:13.537Z,16.03
2019-05-28T06:00:23.238Z,16.02
2019-05-28T06:01:33.244Z,16.03
2019-05-28T06:02:43.300Z,16
2019-05-28T06:03:53.542Z,15.96
2019-05-28T06:05:03.319Z,15.99
2019-05-28T06:06:12.787Z,16.02
2019-05-28T06:07:22.599Z,15.99
2019-05-28T06:08:32.517Z,15.98
2019-05-28T06:09:44.020Z,15.99
2019-05-28T06:10:53.998Z,16.03
2019-05-28T06:12:04.003Z,16.03
2019-05-28T06:13:13.995Z,16.06
2019-05-28T06:14:23.957Z,16.02
2019-05-28T06:15:33.691Z,16.09
2019-05-28T06:16:43.664Z,16.13
2019-05-28T06:17:53.370Z,16.12
2019-05-28T06:19:03.437Z,16.24
2019-05-28T06:20:13.513Z,16.12
2019-05-28T06:21:23.966Z,16.17
2019-05-28T06:22:34.193Z,16.25
2019-05-28T06:23:44.244Z,16.18
2019-05-28T06:24:54.339Z,16.25
2019-05-28T06:26:04.062Z,16.36
2019-05-28T06:27:14.090Z,16.37
2019-05-28T06:28:26.917Z,16.4
2019-05-28T06:29:36.432Z,16.5
2019-05-28T06:30:45.973Z,16.59
2019-05-28T06:31:56.234Z,16.72
2019-05-28T06:33:06.200Z,16.73
2019-05-28T06:34:16.157Z,16.8
2019-05-28T06:35:25.880Z,16.92
2019-05-28T06:36:35.891Z,16.8
2019-05-28T06:37:45.859Z,16.92
2019-05-28T06:38:55.563Z,16.91
2019-05-28T06:40:04.931Z,16.98
2019-05-28T06:41:14.659Z,17.05
2019-05-28T06:42:24.630Z,17.04
2019-05-28T06:43:34.601Z,17.01
2019-05-28T06:44:44.354Z,17.09
2019-05-28T06:45:54.624Z,17.02
2019-05-28T06:47:04.587Z,17.05
2019-05-28T06:48:14.573Z,17.14
2019-05-28T06:49:24.591Z,17.09
2019-05-28T06:50:34.567Z,17.17
2019-05-28T06:51:44.539Z,17.16
2019-05-28T06:52:54.518Z,17.23
2019-05-28T06:54:04.520Z,17.28
2019-05-28T06:55:17.079Z,17.3
2019-05-28T06:56:26.311Z,17.38
2019-05-28T06:57:36.283Z,17.47
2019-05-28T06:58:46.002Z,17.6
2019-05-28T06:59:55.780Z,17.6
2019-05-28T07:01:06.395Z,17.65
2019-05-28T07:02:16.615Z,17.75
2019-05-28T07:03:26.339Z,17.6
2019-05-28T07:04:37.939Z,17.66
2019-05-28T07:06:03.312Z,17.68
2019-05-28T07:07:15.867Z,17.6
2019-05-28T07:08:25.852Z,17.65
2019-05-28T07:09:35.677Z,17.6
2019-05-28T07:11:01.890Z,17.54
2019-05-28T07:12:11.893Z,17.6
2019-05-28T07:13:25.400Z,17.73
2019-05-28T07:14:35.415Z,17.68
2019-05-28T07:15:45.151Z,17.76
2019-05-28T07:16:58.351Z,17.86
2019-05-28T07:18:08.094Z,17.82
2019-05-28T07:19:29.365Z,17.88
2019-05-28T07:20:39.379Z,18.02
2019-05-28T07:21:49.374Z,18.08
2019-05-28T07:22:59.215Z,18.09
2019-05-28T07:24:10.022Z,18.02
2019-05-28T07:25:20.007Z,17.98
2019-05-28T07:26:29.805Z,18.02
2019-05-28T07:27:39.831Z,18
2019-05-28T07:28:49.581Z,18.11
2019-05-28T07:29:59.583Z,18.11
2019-05-28T07:31:09.360Z,18.11
2019-05-28T07:32:19.358Z,18.19
2019-05-28T07:33:29.337Z,18.03
2019-05-28T07:34:43.041Z,18.12
2019-05-28T07:35:53.034Z,18.13
2019-05-28T07:37:02.790Z,18.27
2019-05-28T07:38:12.763Z,18.21
2019-05-28T07:39:22.732Z,18.39
2019-05-28T07:40:36.795Z,18.39
2019-05-28T07:41:46.755Z,18.37
2019-05-28T07:42:56.497Z,18.46
2019-05-28T07:44:06.483Z,18.61
2019-05-28T07:45:16.297Z,18.73
2019-05-28T07:46:26.421Z,18.76
2019-05-28T07:47:36.441Z,18.89
2019-05-28T07:48:46.202Z,18.98
2019-05-28T07:49:55.905Z,19.05
2019-05-28T07:51:05.385Z,19.22
2019-05-28T07:52:14.936Z,19.27
2019-05-28T07:53:41.075Z,19.32
2019-05-28T07:54:50.792Z,19.37
2019-05-28T07:56:00.861Z,19.26
2019-05-28T07:57:10.646Z,19.19
2019-05-28T07:58:20.367Z,19.08
2019-05-28T07:59:30.072Z,19.07
2019-05-28T08:00:39.786Z,19.19
2019-05-28T08:01:49.755Z,19.19
2019-05-28T08:02:59.506Z,19.27
2019-05-28T08:04:09.322Z,19.15
2019-05-28T08:05:22.017Z,19.17
2019-05-28T08:06:31.996Z,19.08
2019-05-28T08:07:58.677Z,19.16
2019-05-28T08:09:08.645Z,19.27
2019-05-28T08:10:18.954Z,19.26
2019-05-28T08:11:28.976Z,19.19
2019-05-28T08:12:38.486Z,19.08
2019-05-28T08:13:47.990Z,19.07
2019-05-28T08:15:00.343Z,19.16
2019-05-28T08:16:28.996Z,19.17
2019-05-28T08:17:38.725Z,19.22
2019-05-28T08:18:48.451Z,19.24
2019-05-28T08:19:58.191Z,19.34
2019-05-28T08:21:07.920Z,19.27
2019-05-28T08:22:18.683Z,19.32
2019-05-28T08:23:28.681Z,19.35
2019-05-28T08:24:38.722Z,19.47
2019-05-28T08:25:52.304Z,19.48
2019-05-28T08:27:02.057Z,19.44
2019-05-28T08:28:24.271Z,19.41
2019-05-28T08:29:34.008Z,19.53
2019-05-28T08:30:43.791Z,19.63
2019-05-28T08:31:53.616Z,19.7
2019-05-28T08:33:03.664Z,19.81
2019-05-28T08:34:13.489Z,19.81
2019-05-28T08:35:27.225Z,19.9
2019-05-28T08:36:37.007Z,20.12
2019-05-28T08:37:46.453Z,20.19
2019-05-28T08:38:56.430Z,20.32
2019-05-28T08:40:06.455Z,20.46
2019-05-28T08:41:16.010Z,20.63
2019-05-28T08:42:26.044Z,20.78
2019-05-28T08:43:36.083Z,20.88
2019-05-28T08:44:45.863Z,20.9
2019-05-28T08:45:55.917Z,20.93
2019-05-28T08:47:05.900Z,20.96
2019-05-28T08:48:15.881Z,21.05
2019-05-28T08:49:28.872Z,21.03
2019-05-28T08:50:40.127Z,21.13
2019-05-28T08:51:50.103Z,21.1
2019-05-28T08:52:59.849Z,21.11
2019-05-28T08:54:09.912Z,21.13
2019-05-28T08:55:19.719Z,20.96
2019-05-28T08:56:29.759Z,20.89
2019-05-28T08:57:40.169Z,20.95
2019-05-28T08:58:49.931Z,21.01
2019-05-28T08:59:59.775Z,20.89
2019-05-28T09:01:09.541Z,20.83
2019-05-28T09:02:32.493Z,20.78
2019-05-28T09:03:41.954Z,20.82
2019-05-28T09:04:51.966Z,20.8
2019-05-28T09:06:01.747Z,20.83
2019-05-28T09:07:11.733Z,20.95
2019-05-28T09:08:37.593Z,21.04
2019-05-28T09:09:48.043Z,21.19
2019-05-28T09:10:57.870Z,21.2
2019-05-28T09:12:09.669Z,21.14
2019-05-28T09:13:19.365Z,21.22
2019-05-28T09:14:52.301Z,21.15
2019-05-28T09:16:04.591Z,21.17
2019-05-28T09:17:14.630Z,21.2
2019-05-28T09:18:23.851Z,21.22
2019-05-28T09:19:33.846Z,21.11
2019-05-28T09:20:44.184Z,21.07
2019-05-28T09:21:54.357Z,20.86
2019-05-28T09:23:04.176Z,20.82
2019-05-28T09:24:14.159Z,20.74
2019-05-28T09:25:24.187Z,20.66
2019-05-28T09:26:33.918Z,20.46
2019-05-28T09:27:43.903Z,20.3
2019-05-28T09:28:53.982Z,20.48
2019-05-28T09:30:04.020Z,20.55
2019-05-28T09:31:14.294Z,20.59
2019-05-28T09:32:24.273Z,20.67
2019-05-28T09:33:34.466Z,20.73
2019-05-28T09:34:44.589Z,20.74
2019-05-28T09:36:12.151Z,20.88
2019-05-28T09:37:22.115Z,20.89
2019-05-28T09:38:32.104Z,20.92
2019-05-28T09:39:42.125Z,20.83
2019-05-28T09:40:55.400Z,20.67
2019-05-28T09:42:05.517Z,20.78
2019-05-28T09:43:15.624Z,20.8
2019-05-28T09:44:25.634Z,20.88
2019-05-28T09:45:35.390Z,20.92
2019-05-28T09:46:45.429Z,20.89
2019-05-28T09:47:57.706Z,20.67
2019-05-28T09:49:07.471Z,20.86
2019-05-28T09:50:34.842Z,21
2019-05-28T09:51:44.816Z,21
2019-05-28T09:52:59.727Z,21.13
2019-05-28T09:54:09.502Z,21.13
2019-05-28T09:55:19.500Z,21.2
2019-05-28T09:56:32.493Z,21.14
2019-05-28T09:57:52.307Z,20.98
2019-05-28T09:59:02.049Z,21.03
2019-05-28T10:00:15.023Z,21.11
2019-05-28T10:01:25.099Z,21.15
2019-05-28T10:02:34.828Z,21.14
2019-05-28T10:03:44.591Z,21.14
2019-05-28T10:04:55.089Z,21.23
2019-05-28T10:06:20.879Z,21.04
2019-05-28T10:07:46.996Z,20.67
2019-05-28T10:08:56.974Z,20.52
2019-05-28T10:10:06.521Z,20.68
2019-05-28T10:11:16.585Z,20.85
2019-05-28T10:12:26.681Z,20.93
2019-05-28T10:13:44.490Z,21.11
2019-05-28T10:14:54.539Z,21.28
2019-05-28T10:16:04.399Z,21.45
2019-05-28T10:17:14.162Z,21.54
2019-05-28T10:18:23.923Z,21.58
2019-05-28T10:19:33.420Z,21.66
2019-05-28T10:20:43.239Z,21.63
2019-05-28T10:21:53.202Z,21.59
2019-05-28T10:23:02.967Z,21.84
2019-05-28T10:24:12.948Z,21.96
2019-05-28T10:25:23.173Z,21.99
2019-05-28T10:26:33.198Z,22.06
2019-05-28T10:28:02.007Z,22.43
2019-05-28T10:29:11.537Z,22.65
2019-05-28T10:30:21.288Z,22.84
2019-05-28T10:31:31.257Z,22.8
2019-05-28T10:32:41.244Z,22.86
2019-05-28T10:33:51.221Z,23.26
2019-05-28T10:35:08.917Z,23.49
2019-05-28T10:36:38.078Z,23.74
2019-05-28T10:37:48.008Z,24.01
2019-05-28T10:38:58.009Z,24.1
2019-05-28T10:40:07.750Z,24
2019-05-28T10:41:17.517Z,24
2019-05-28T10:42:27.551Z,24.04
2019-05-28T10:43:37.530Z,24.18
2019-05-28T10:44:50.111Z,24.22
2019-05-28T10:46:00.830Z,24.28
2019-05-28T10:47:11.429Z,24.31
2019-05-28T10:48:21.445Z,24.34
2019-05-28T10:49:31.438Z,24.43
2019-05-28T10:50:41.414Z,24.51
2019-05-28T10:51:51.400Z,24.88
2019-05-28T10:53:01.162Z,25.22
2019-05-28T10:54:10.922Z,25.46
2019-05-28T10:55:21.123Z,25.48
2019-05-28T10:56:31.232Z,25.61
2019-05-28T10:57:41.450Z,25.66
2019-05-28T10:58:51.482Z,25.68
2019-05-28T11:00:01.541Z,25.83
2019-05-28T11:01:11.563Z,26.01
2019-05-28T11:02:21.310Z,26.22
2019-05-28T11:03:31.319Z,26.41
2019-05-28T11:04:41.049Z,26.41
2019-05-28T11:05:51.163Z,26.36
2019-05-28T11:07:00.623Z,26.24
2019-05-28T11:08:10.586Z,26.04
2019-05-28T11:09:20.046Z,25.93
2019-05-28T11:10:29.963Z,25.77
2019-05-28T11:11:40.015Z,25.67
2019-05-28T11:12:49.777Z,25.76
2019-05-28T11:13:59.807Z,25.93
2019-05-28T11:15:09.865Z,26.19
2019-05-28T11:16:19.912Z,26.3
2019-05-28T11:17:29.276Z,26.36
2019-05-28T11:18:39.272Z,26.42
2019-05-28T11:19:49.232Z,26.49
2019-05-28T11:20:59.249Z,26.29
2019-05-28T11:22:14.774Z,26.03
2019-05-28T11:23:24.737Z,25.89
2019-05-28T11:24:34.746Z,25.78
2019-05-28T11:25:44.493Z,25.76
2019-05-28T11:26:54.527Z,25.85
2019-05-28T11:28:04.518Z,25.88
2019-05-28T11:29:14.615Z,25.89
2019-05-28T11:30:25.032Z,25.93
2019-05-28T11:31:35.008Z,26.04
2019-05-28T11:32:46.368Z,26.13
2019-05-28T11:33:56.248Z,26.1
2019-05-28T11:35:06.249Z,26.06
2019-05-28T11:36:16.312Z,25.48
2019-05-28T11:37:26.284Z,25.07
2019-05-28T11:38:36.026Z,25
2019-05-28T11:39:45.760Z,24.69
2019-05-28T11:40:55.743Z,24.32
2019-05-28T11:42:05.809Z,24.13
2019-05-28T11:43:15.530Z,24.01
2019-05-28T11:44:25.306Z,24.09
2019-05-28T11:45:35.010Z,24.03
2019-05-28T11:46:44.970Z,23.52
2019-05-28T11:47:56.138Z,23.2
2019-05-28T11:49:06.106Z,23.02
2019-05-28T11:50:16.162Z,22.95
2019-05-28T11:51:26.240Z,22.84
2019-05-28T11:52:36.199Z,23.02
2019-05-28T11:53:46.220Z,23.06
2019-05-28T11:54:56.204Z,22.88
2019-05-28T11:56:05.720Z,22.99
2019-05-28T11:57:15.687Z,23.1
2019-05-28T11:58:25.667Z,23.04
2019-05-28T11:59:35.148Z,23.17
2019-05-28T12:00:45.156Z,23.4
2019-05-28T12:01:55.157Z,23.52
2019-05-28T12:03:05.266Z,23.67
2019-05-28T12:04:15.390Z,23.62
2019-05-28T12:05:25.439Z,23.67
2019-05-28T12:06:40.631Z,23.74
2019-05-28T12:07:54.224Z,23.88
2019-05-28T12:09:04.230Z,23.88
2019-05-28T12:10:14.009Z,23.91
2019-05-28T12:11:23.737Z,23.89
2019-05-28T12:12:33.273Z,23.81
2019-05-28T12:13:43.342Z,23.73
2019-05-28T12:14:53.113Z,23.69
2019-05-28T12:16:03.078Z,23.66
2019-05-28T12:17:13.070Z,23.7
2019-05-28T12:18:23.066Z,23.95
2019-05-28T12:19:33.119Z,23.95
2019-05-28T12:20:43.299Z,24
2019-05-28T12:21:53.028Z,24.09
2019-05-28T12:23:15.942Z,24.06
2019-05-28T12:24:30.941Z,23.95
2019-05-28T12:25:40.685Z,23.88
2019-05-28T12:26:50.807Z,23.89
2019-05-28T12:28:01.225Z,23.92
2019-05-28T12:29:11.222Z,23.99
2019-05-28T12:30:23.442Z,23.82
2019-05-28T12:31:33.424Z,23.58
2019-05-28T12:32:43.433Z,23.74
2019-05-28T12:33:53.190Z,23.59
2019-05-28T12:35:02.707Z,23.28
2019-05-28T12:36:31.699Z,23.04
2019-05-28T12:37:53.453Z,22.84
2019-05-28T12:39:03.426Z,22.89
2019-05-28T12:40:13.386Z,22.71
2019-05-28T12:41:22.895Z,22.49
2019-05-28T12:42:32.885Z,22.47
2019-05-28T12:43:42.549Z,22.55
2019-05-28T12:45:11.309Z,22.73
2019-05-28T12:46:21.307Z,22.84
2019-05-28T12:47:31.048Z,23.04
2019-05-28T12:48:41.035Z,22.84
2019-05-28T12:49:51.022Z,22.78
2019-05-28T12:51:04.688Z,22.88
2019-05-28T12:52:14.210Z,22.88
2019-05-28T12:53:24.221Z,23.11
2019-05-28T12:54:53.347Z,23.34
2019-05-28T12:56:03.078Z,23.67
2019-05-28T12:57:13.071Z,23.96
2019-05-28T12:58:40.672Z,24.18
2019-05-28T12:59:51.400Z,24.43
2019-05-28T13:01:01.424Z,24.65
2019-05-28T13:02:11.517Z,24.88
2019-05-28T13:03:21.521Z,25.14
2019-05-28T13:04:31.527Z,25.06
2019-05-28T13:05:41.512Z,25.21
2019-05-28T13:06:51.503Z,25.3
2019-05-28T13:08:13.860Z,25.3
2019-05-28T13:09:23.867Z,25.41
2019-05-28T13:10:33.593Z,25.33
2019-05-28T13:11:43.316Z,25.36
2019-05-28T13:12:53.865Z,25.39
2019-05-28T13:14:03.943Z,25.41
2019-05-28T13:15:14.095Z,25.51
2019-05-28T13:16:24.070Z,25.48
2019-05-28T13:17:33.873Z,25.43
2019-05-28T13:18:43.635Z,25.36
2019-05-28T13:19:53.669Z,25.24
2019-05-28T13:21:03.610Z,25.29
2019-05-28T13:22:13.237Z,25.29
2019-05-28T13:23:22.999Z,25.29
2019-05-28T13:24:32.988Z,25.24
2019-05-28T13:25:42.985Z,25.22
2019-05-28T13:26:52.831Z,25.15
2019-05-28T13:28:02.572Z,25.04
2019-05-28T13:29:12.568Z,25.19
2019-05-28T13:30:23.084Z,25.3
2019-05-28T13:31:32.807Z,25.4
2019-05-28T13:32:43.126Z,25.31
2019-05-28T13:33:53.760Z,25.24
2019-05-28T13:35:04.060Z,25.07
2019-05-28T13:36:14.069Z,24.82
2019-05-28T13:37:24.150Z,24.78
2019-05-28T13:38:34.159Z,24.89
2019-05-28T13:39:47.910Z,24.86
2019-05-28T13:40:57.703Z,24.85
2019-05-28T13:42:07.711Z,24.77
2019-05-28T13:43:17.754Z,24.48
2019-05-28T13:44:27.823Z,24.56
2019-05-28T13:45:37.805Z,24.58
2019-05-28T13:46:47.818Z,24.62
2019-05-28T13:47:57.648Z,24.65
2019-05-28T13:49:07.534Z,24.69
2019-05-28T13:50:17.516Z,24.81
2019-05-28T13:51:27.486Z,24.82
2019-05-28T13:52:37.470Z,24.78
2019-05-28T13:53:47.471Z,24.81
2019-05-28T13:54:57.476Z,24.79
2019-05-28T13:56:07.207Z,24.79
2019-05-28T13:57:17.187Z,24.79
2019-05-28T13:58:27.307Z,24.77
2019-05-28T13:59:37.034Z,24.77
2019-05-28T14:00:46.808Z,24.78
2019-05-28T14:01:57.059Z,24.82
2019-05-28T14:03:08.057Z,24.84
2019-05-28T14:04:18.643Z,24.85
2019-05-28T14:05:28.619Z,24.68
2019-05-28T14:06:43.753Z,24.63
2019-05-28T14:07:54.102Z,24.47
2019-05-28T14:09:04.092Z,24.26
2019-05-28T14:10:14.094Z,24.18
2019-05-28T14:11:23.879Z,24.16
2019-05-28T14:12:33.634Z,24.06
2019-05-28T14:13:43.630Z,24.11
2019-05-28T14:14:53.612Z,24.19
2019-05-28T14:16:06.461Z,24.31
2019-05-28T14:17:16.520Z,24.28
2019-05-28T14:18:26.260Z,24.36
2019-05-28T14:19:36.012Z,24.36
2019-05-28T14:20:45.755Z,24.46
2019-05-28T14:21:55.739Z,24.68
2019-05-28T14:23:09.640Z,24.79
2019-05-28T14:24:19.640Z,24.92
2019-05-28T14:25:29.649Z,25.04
2019-05-28T14:26:39.616Z,25.09
2019-05-28T14:27:49.611Z,25.34
2019-05-28T14:28:59.613Z,25.39
2019-05-28T14:30:09.592Z,25.43
2019-05-28T14:31:19.574Z,25.48
2019-05-28T14:32:29.567Z,25.59
2019-05-28T14:33:39.606Z,25.62
2019-05-28T14:34:52.342Z,25.52
2019-05-28T14:36:02.572Z,25.54
2019-05-28T14:37:12.259Z,25.55
2019-05-28T14:38:22.031Z,25.67
2019-05-28T14:39:45.803Z,25.7
2019-05-28T14:40:56.595Z,25.67
2019-05-28T14:42:08.012Z,25.62
2019-05-28T14:43:18.024Z,25.71
2019-05-28T14:44:27.751Z,25.85
2019-05-28T14:45:37.754Z,25.88
2019-05-28T14:46:47.519Z,25.83
2019-05-28T14:47:57.570Z,25.91
2019-05-28T14:49:12.266Z,25.96
2019-05-28T14:50:22.225Z,25.85
2019-05-28T14:51:31.697Z,25.68
2019-05-28T14:52:41.201Z,25.74
2019-05-28T14:53:51.179Z,25.71
2019-05-28T14:55:00.949Z,25.74
2019-05-28T14:56:10.946Z,25.74
2019-05-28T14:57:20.762Z,25.7
2019-05-28T14:58:30.843Z,25.68
2019-05-28T14:59:40.808Z,25.56
2019-05-28T15:00:50.281Z,25.44
2019-05-28T15:01:59.816Z,25.29
2019-05-28T15:03:09.587Z,25.12
2019-05-28T15:04:19.322Z,24.81
2019-05-28T15:05:30.108Z,24.79
2019-05-28T15:06:40.069Z,24.56
2019-05-28T15:07:49.824Z,24.41
2019-05-28T15:08:59.825Z,24.29
2019-05-28T15:10:26.881Z,24.24
2019-05-28T15:11:36.875Z,24.21
2019-05-28T15:12:46.891Z,24.25
2019-05-28T15:13:56.945Z,24.22
2019-05-28T15:15:06.960Z,24.21